Time;durP1;ratioP1;P1;durP2;ratioP2;P2;SDS_P1;SDS_P2;PMS_P1;PMS_P2;Temp;Humidity;BMP_temperature;BMP_pressure;BME280_temperature;BME280_humidity;BME280_pressure;Samples;Min_cycle;Max_cycle;Signal;HPM_P1;HPM_P2
2023/04/17 00:02:11;;;;;;;4.10;1.10;;;21.00;99.90;;;;;;5098793;28;20196;-77
2023/04/17 00:04:42;;;;;;;5.53;1.00;;;21.20;99.90;;;;;;5100275;27;20226;-77
2023/04/17 00:07:15;;;;;;;2.28;0.80;;;21.30;99.90;;;;;;5101087;27;20205;-76
2023/04/17 00:09:46;;;;;;;3.38;0.75;;;21.40;99.90;;;;;;5097251;28;20231;-77
2023/04/17 00:12:19;;;;;;;2.25;0.70;;;21.50;99.90;;;;;;5097751;28;20202;-76
2023/04/17 00:14:50;;;;;;;5.18;0.75;;;21.60;99.90;;;;;;5098854;28;20552;-76
2023/04/17 00:17:22;;;;;;;2.20;0.80;;;21.50;99.90;;;;;;5102247;27;20201;-76
2023/04/17 00:19:53;;;;;;;3.97;0.90;;;21.50;99.90;;;;;;5099121;28;20202;-75
2023/04/17 00:22:24;;;;;;;4.18;0.98;;;21.50;99.90;;;;;;5096002;27;20209;-76
2023/04/17 00:24:55;;;;;;;4.43;0.82;;;21.50;99.90;;;;;;5098737;28;20232;-76
2023/04/17 00:27:28;;;;;;;2.35;0.80;;;21.50;99.90;;;;;;5096701;27;20194;-76
2023/04/17 00:29:59;;;;;;;4.97;0.77;;;21.50;99.90;;;;;;5097845;28;20224;-76
2023/04/17 00:32:30;;;;;;;8.38;0.90;;;21.40;99.90;;;;;;5096289;28;20913;-76
2023/04/17 00:35:01;;;;;;;4.38;0.98;;;21.40;99.90;;;;;;5098333;28;20202;-77
2023/04/17 00:37:34;;;;;;;3.53;0.77;;;21.30;99.90;;;;;;5098003;27;20200;-74
2023/04/17 00:40:05;;;;;;;2.35;0.75;;;21.30;99.90;;;;;;5104995;27;20266;-72
2023/04/17 00:42:38;;;;;;;2.55;0.70;;;21.40;99.90;;;;;;5099583;27;20198;-74
2023/04/17 00:45:11;;;;;;;3.13;0.80;;;21.40;99.90;;;;;;5099376;27;20198;-75
2023/04/17 00:47:42;;;;;;;2.90;0.70;;;21.40;99.90;;;;;;5113270;27;20283;-76
2023/04/17 00:50:14;;;;;;;5.47;0.82;;;21.40;99.90;;;;;;5103394;27;20198;-75
2023/04/17 00:52:45;;;;;;;2.97;0.90;;;21.40;99.90;;;;;;5103282;27;20221;-74
2023/04/17 00:55:17;;;;;;;3.55;0.80;;;21.50;99.90;;;;;;5103186;27;20203;-74
2023/04/17 00:57:51;;;;;;;7.00;1.00;;;21.50;99.90;;;;;;5104043;27;20290;-74
2023/04/17 01:00:22;;;;;;;6.90;1.10;;;21.50;99.90;;;;;;5103889;27;20569;-74
2023/04/17 01:02:53;;;;;;;4.82;1.10;;;21.50;99.90;;;;;;5111824;27;20716;-74
2023/04/17 01:05:24;;;;;;;6.28;1.10;;;21.30;99.90;;;;;;5103581;27;20226;-74
2023/04/17 01:07:56;;;;;;;3.58;1.00;;;21.40;99.90;;;;;;5102635;27;20218;-75
2023/04/17 01:10:27;;;;;;;5.10;0.80;;;21.60;99.90;;;;;;5102752;27;21700;-74
2023/04/17 01:13:07;;;;;;;3.17;0.90;;;21.70;99.90;;;;;;5104510;27;20198;-75
2023/04/17 01:15:39;;;;;;;5.90;1.08;;;21.90;99.90;;;;;;5103129;27;20310;-74
2023/04/17 01:18:10;;;;;;;2.83;0.93;;;22.10;99.90;;;;;;5103870;27;22938;-73
2023/04/17 01:20:41;;;;;;;2.63;1.00;;;22.20;99.90;;;;;;5102162;27;20190;-74
2023/04/17 01:23:12;;;;;;;4.63;0.82;;;22.20;99.90;;;;;;5103296;27;20202;-74
2023/04/17 01:25:45;;;;;;;2.83;0.80;;;22.10;99.90;;;;;;5103732;27;20241;-74
2023/04/17 01:28:16;;;;;;;2.20;0.65;;;22.10;99.90;;;;;;5102814;27;20226;-74
2023/04/17 01:30:48;;;;;;;3.42;0.90;;;22.00;99.90;;;;;;5106615;27;20201;-74
2023/04/17 01:33:19;;;;;;;6.10;1.15;;;21.90;99.90;;;;;;5103597;27;20209;-73
2023/04/17 01:35:50;;;;;;;3.38;0.80;;;21.80;99.90;;;;;;5105446;27;20198;-75
2023/04/17 01:38:21;;;;;;;2.50;0.80;;;21.70;99.90;;;;;;5105580;27;20198;-73
2023/04/17 01:40:54;;;;;;;4.20;0.95;;;21.70;99.90;;;;;;5107946;27;20194;-73
2023/04/17 01:43:25;;;;;;;4.75;0.80;;;21.60;99.90;;;;;;5112967;27;20202;-73
2023/04/17 01:45:56;;;;;;;3.45;0.70;;;21.60;99.90;;;;;;5117833;27;20205;-74
2023/04/17 01:48:27;;;;;;;3.83;1.08;;;21.60;99.90;;;;;;5104919;27;20227;-73
2023/04/17 01:50:58;;;;;;;6.03;1.00;;;21.60;99.90;;;;;;5107839;27;20197;-74
2023/04/17 01:53:29;;;;;;;4.95;1.10;;;21.80;99.90;;;;;;5119901;27;20666;-73
2023/04/17 01:56:02;;;;;;;3.60;0.90;;;21.90;99.90;;;;;;5102998;27;20194;-75
2023/04/17 01:58:33;;;;;;;4.88;0.80;;;22.00;99.90;;;;;;5097768;27;20684;-75
2023/04/17 02:01:05;;;;;;;4.35;0.88;;;22.00;99.90;;;;;;5113977;27;20198;-75
2023/04/17 02:03:36;;;;;;;3.85;1.00;;;22.00;99.90;;;;;;5131791;27;20209;-76
2023/04/17 02:06:07;;;;;;;7.18;1.45;;;22.00;99.90;;;;;;5130022;27;20194;-76
2023/04/17 02:08:38;;;;;;;5.72;1.05;;;22.10;99.90;;;;;;5130995;27;20225;-75
2023/04/17 02:11:12;;;;;;;4.72;1.08;;;22.10;99.90;;;;;;5123146;27;20235;-75
2023/04/17 02:13:43;;;;;;;3.65;1.13;;;22.00;99.90;;;;;;5131361;27;20205;-74
2023/04/17 02:16:15;;;;;;;6.72;1.10;;;22.00;99.90;;;;;;5131943;27;20198;-75
2023/04/17 02:18:46;;;;;;;2.58;0.70;;;21.90;99.90;;;;;;5133824;27;20198;-75
2023/04/17 02:21:17;;;;;;;4.93;0.90;;;22.00;99.90;;;;;;5131962;27;20205;-76
2023/04/17 02:23:48;;;;;;;3.63;0.82;;;21.90;99.90;;;;;;5137173;27;20201;-74
2023/04/17 02:26:22;;;;;;;4.35;0.85;;;21.90;99.90;;;;;;5133637;27;20194;-76
2023/04/17 02:28:53;;;;;;;2.95;0.90;;;22.00;99.90;;;;;;5138523;27;20715;-74
2023/04/17 02:31:25;;;;;;;5.50;1.25;;;21.90;99.90;;;;;;5132289;27;20190;-75
2023/04/17 02:33:56;;;;;;;3.33;0.90;;;21.90;99.90;;;;;;5128620;27;20619;-75
2023/04/17 02:36:27;;;;;;;4.80;1.13;;;21.90;99.90;;;;;;5127477;27;20542;-75
2023/04/17 02:38:58;;;;;;;6.75;1.40;;;21.90;99.90;;;;;;5126988;27;20202;-75
2023/04/17 02:41:31;;;;;;;5.47;1.13;;;21.90;99.90;;;;;;5121777;27;20213;-74
2023/04/17 02:44:04;;;;;;;4.82;1.40;;;22.00;99.90;;;;;;5127751;27;20205;-74
2023/04/17 02:46:35;;;;;;;7.65;1.35;;;22.00;99.90;;;;;;5129189;27;20209;-75
2023/04/17 02:49:06;;;;;;;6.68;1.63;;;22.10;99.90;;;;;;5129740;27;20230;-76
2023/04/17 02:51:37;;;;;;;5.07;1.30;;;22.10;99.90;;;;;;5128332;27;20278;-76
2023/04/17 02:54:08;;;;;;;5.00;1.30;;;22.20;99.90;;;;;;5127737;27;20201;-75
2023/04/17 02:56:42;;;;;;;6.40;1.08;;;22.30;99.90;;;;;;5121908;27;20660;-75
2023/04/17 02:59:13;;;;;;;3.33;0.90;;;22.50;99.90;;;;;;5119487;27;20331;-75
2023/04/17 03:01:44;;;;;;;3.90;0.82;;;22.40;99.90;;;;;;5115395;27;20190;-75
2023/04/17 03:04:15;;;;;;;4.57;1.13;;;22.50;99.90;;;;;;5125221;27;20198;-75
2023/04/17 03:06:46;;;;;;;5.38;1.10;;;22.50;99.90;;;;;;5125691;27;20567;-75
2023/04/17 03:09:17;;;;;;;2.85;0.73;;;22.40;99.90;;;;;;5125419;27;20636;-76
2023/04/17 03:11:50;;;;;;;1.80;0.77;;;22.40;99.90;;;;;;5123453;27;20583;-75
2023/04/17 03:14:21;;;;;;;5.00;0.98;;;22.30;99.90;;;;;;5128238;27;20282;-75
2023/04/17 03:16:53;;;;;;;4.15;0.80;;;22.30;99.90;;;;;;5123801;27;21948;-76
2023/04/17 03:19:24;;;;;;;4.05;1.02;;;22.20;99.90;;;;;;5103953;27;20216;-76
2023/04/17 03:21:55;;;;;;;4.47;1.10;;;22.20;99.90;;;;;;5104871;27;20202;-75
2023/04/17 03:24:26;;;;;;;6.50;1.20;;;22.10;99.90;;;;;;5102529;27;20230;-76
2023/04/17 03:26:59;;;;;;;5.93;1.02;;;22.10;99.90;;;;;;5102475;27;20206;-77
2023/04/17 03:29:30;;;;;;;2.92;0.90;;;22.10;99.90;;;;;;5099405;27;20829;-75
2023/04/17 03:32:01;;;;;;;5.10;1.02;;;22.10;99.90;;;;;;5096588;27;20941;-76
2023/04/17 03:34:32;;;;;;;5.53;1.23;;;22.10;99.90;;;;;;5095525;27;20199;-77
2023/04/17 03:37:04;;;;;;;6.22;1.30;;;22.10;99.90;;;;;;5099724;27;22810;-76
2023/04/17 03:39:35;;;;;;;4.95;1.00;;;22.30;99.90;;;;;;5103005;27;20581;-76
2023/04/17 03:42:10;;;;;;;2.83;0.90;;;22.40;99.90;;;;;;5109507;27;20697;-76
2023/04/17 03:44:41;;;;;;;4.45;1.23;;;22.50;99.90;;;;;;5117612;27;20247;-76
2023/04/17 03:47:13;;;;;;;4.40;1.10;;;22.50;99.90;;;;;;5099956;27;21020;-77
2023/04/17 03:49:44;;;;;;;6.90;1.10;;;22.40;99.90;;;;;;5098108;27;20264;-76
2023/04/17 03:52:15;;;;;;;4.35;1.10;;;22.40;99.90;;;;;;5106433;27;20194;-77
2023/04/17 03:54:47;;;;;;;6.00;1.10;;;22.40;99.90;;;;;;5104249;27;20190;-76
2023/04/17 03:57:20;;;;;;;4.05;1.17;;;22.40;99.90;;;;;;5098254;28;20687;-76
2023/04/17 03:59:51;;;;;;;3.90;0.93;;;22.30;99.90;;;;;;5100062;27;20200;-76
2023/04/17 04:02:23;;;;;;;4.90;0.98;;;22.40;99.90;;;;;;5098818;27;20202;-76
2023/04/17 04:04:54;;;;;;;7.45;1.20;;;22.40;99.90;;;;;;5097700;27;20584;-76
2023/04/17 04:07:25;;;;;;;4.53;1.20;;;22.40;99.90;;;;;;5099279;28;20206;-75
2023/04/17 04:09:56;;;;;;;4.55;0.90;;;22.40;99.90;;;;;;5098145;28;20980;-78
2023/04/17 04:12:29;;;;;;;5.32;1.10;;;22.50;99.90;;;;;;5101556;28;20231;-77
2023/04/17 04:15:01;;;;;;;2.97;0.75;;;22.50;99.90;;;;;;5098129;28;20198;-76
2023/04/17 04:17:32;;;;;;;4.57;0.90;;;22.60;99.90;;;;;;5097068;28;20206;-76
2023/04/17 04:20:03;;;;;;;3.47;1.00;;;22.70;99.90;;;;;;5100677;28;20193;-75
2023/04/17 04:22:35;;;;;;;3.45;1.00;;;22.60;99.90;;;;;;5101069;27;20921;-76
2023/04/17 04:25:06;;;;;;;4.90;0.90;;;22.60;99.90;;;;;;5102955;27;20245;-76
2023/04/17 04:27:44;;;;;;;5.53;1.10;;;22.50;99.90;;;;;;5101873;27;20198;-78
2023/04/17 04:30:16;;;;;;;3.17;0.63;;;22.50;99.90;;;;;;5104638;27;20253;-76
2023/04/17 04:32:47;;;;;;;6.47;1.20;;;22.50;99.90;;;;;;5103190;27;21139;-76
2023/04/17 04:35:19;;;;;;;4.40;1.00;;;22.50;99.90;;;;;;5102704;27;20202;-75
2023/04/17 04:37:50;;;;;;;3.50;0.80;;;22.30;99.90;;;;;;5105506;27;20740;-75
2023/04/17 04:40:21;;;;;;;6.03;0.93;;;22.40;99.90;;;;;;5101177;27;20624;-76
2023/04/17 04:42:54;;;;;;;4.90;0.90;;;22.40;99.90;;;;;;5101632;27;20202;-77
2023/04/17 04:45:25;;;;;;;3.17;0.80;;;22.40;99.90;;;;;;5113842;27;20208;-77
2023/04/17 04:47:57;;;;;;;2.63;0.80;;;22.40;99.90;;;;;;5102242;27;20498;-77
2023/04/17 04:50:28;;;;;;;3.67;0.90;;;22.30;99.90;;;;;;5102168;27;20590;-77
2023/04/17 04:52:59;;;;;;;5.68;0.90;;;22.40;99.90;;;;;;5098388;27;20202;-76
2023/04/17 04:55:30;;;;;;;3.17;0.90;;;22.30;99.90;;;;;;5100249;27;20198;-77
2023/04/17 04:58:03;;;;;;;3.83;0.82;;;22.30;99.90;;;;;;5104879;27;20223;-76
2023/04/17 05:00:34;;;;;;;4.32;0.90;;;22.30;99.90;;;;;;5100152;27;21941;-76
2023/04/17 05:03:05;;;;;;;4.85;0.88;;;22.30;99.90;;;;;;5100778;27;20202;-76
2023/04/17 05:05:37;;;;;;;3.45;0.90;;;22.30;99.90;;;;;;5099279;27;20198;-76
2023/04/17 05:08:08;;;;;;;3.10;0.80;;;22.30;99.90;;;;;;5100228;27;20198;-76
2023/04/17 05:10:39;;;;;;;2.85;1.00;;;22.40;99.90;;;;;;5098116;27;20233;-76
2023/04/17 05:13:12;;;;;;;5.18;0.90;;;22.40;99.90;;;;;;5102099;27;20222;-76
2023/04/17 05:15:43;;;;;;;4.57;1.05;;;22.40;99.90;;;;;;5100361;27;22079;-76
2023/04/17 05:18:14;;;;;;;4.28;0.98;;;22.40;99.90;;;;;;5100885;27;20197;-77
2023/04/17 05:20:47;;;;;;;2.25;0.70;;;22.50;99.90;;;;;;5097491;27;20217;-77
2023/04/17 05:23:19;;;;;;;3.88;0.95;;;22.50;99.90;;;;;;5099222;27;21202;-77
2023/04/17 05:25:51;;;;;;;4.80;0.85;;;22.60;99.90;;;;;;5101298;27;20233;-78
2023/04/17 05:28:24;;;;;;;5.40;0.95;;;22.60;99.90;;;;;;5108123;27;20221;-78
2023/04/17 05:30:55;;;;;;;4.63;0.90;;;22.60;99.90;;;;;;5105180;27;20236;-76
2023/04/17 05:33:26;;;;;;;3.30;0.90;;;22.60;99.90;;;;;;5096497;27;20202;-76
2023/04/17 05:35:57;;;;;;;3.13;0.80;;;22.40;99.90;;;;;;5097814;27;21547;-77
2023/04/17 05:38:28;;;;;;;1.55;0.63;;;22.40;99.90;;;;;;5100119;27;22256;-76
2023/04/17 05:41:00;;;;;;;3.72;0.82;;;22.30;99.90;;;;;;5100731;27;20225;-76
2023/04/17 05:43:33;;;;;;;5.03;0.80;;;22.30;99.90;;;;;;5101814;27;20690;-76
2023/04/17 05:46:04;;;;;;;2.13;0.60;;;22.20;99.90;;;;;;5113206;27;20246;-77
2023/04/17 05:48:35;;;;;;;4.57;0.88;;;22.20;99.90;;;;;;5097804;27;20222;-77
2023/04/17 05:51:06;;;;;;;2.45;0.80;;;22.20;99.90;;;;;;5104489;27;20730;-77
2023/04/17 05:53:38;;;;;;;2.75;0.70;;;22.30;99.90;;;;;;5095602;27;20202;-77
2023/04/17 05:56:09;;;;;;;3.90;0.75;;;22.40;99.90;;;;;;5096871;27;20216;-77
2023/04/17 05:58:42;;;;;;;2.53;0.60;;;22.50;99.90;;;;;;5097505;27;20247;-76
2023/04/17 06:01:16;;;;;;;3.67;0.90;;;22.60;99.90;;;;;;5099618;27;20202;-75
2023/04/17 06:03:47;;;;;;;4.22;0.75;;;22.60;99.90;;;;;;5096747;27;20200;-77
2023/04/17 06:06:21;;;;;;;4.00;0.93;;;22.50;99.90;;;;;;5096262;27;21605;-77
2023/04/17 06:08:53;;;;;;;2.97;1.10;;;22.30;99.90;;;;;;5099998;27;20195;-77
2023/04/17 06:11:24;;;;;;;2.88;1.00;;;22.20;99.90;;;;;;5095409;27;20222;-77
2023/04/17 06:13:57;;;;;;;1.63;0.60;;;22.20;99.90;;;;;;5095976;27;20252;-77
2023/04/17 06:16:29;;;;;;;6.95;1.10;;;22.10;99.90;;;;;;5096842;27;20256;-78
2023/04/17 06:19:00;;;;;;;4.05;0.68;;;22.10;99.90;;;;;;5098401;27;20198;-76
2023/04/17 06:21:31;;;;;;;3.22;0.80;;;22.00;99.90;;;;;;5098549;27;20202;-81
2023/04/17 06:24:02;;;;;;;2.92;0.80;;;21.90;99.90;;;;;;5103042;27;20635;-81
2023/04/17 06:26:34;;;;;;;3.95;0.98;;;21.80;99.90;;;;;;5102372;27;20193;-77
2023/04/17 06:29:07;;;;;;;4.15;0.88;;;21.70;99.90;;;;;;5104736;27;20206;-77
2023/04/17 06:31:38;;;;;;;2.15;0.65;;;21.70;99.90;;;;;;5103434;27;20225;-77
2023/04/17 06:34:10;;;;;;;3.63;0.80;;;21.70;99.90;;;;;;5103852;27;20202;-78
2023/04/17 06:36:41;;;;;;;1.60;0.70;;;21.70;99.90;;;;;;5103256;27;20209;-77
2023/04/17 06:39:12;;;;;;;2.78;0.60;;;21.70;99.90;;;;;;5102993;27;20206;-76
2023/04/17 06:41:43;;;;;;;5.05;0.90;;;21.70;99.90;;;;;;5095349;27;20213;-77
2023/04/17 06:44:17;;;;;;;3.13;0.77;;;21.70;99.90;;;;;;5113834;27;20202;-77
2023/04/17 06:46:48;;;;;;;4.43;0.90;;;21.80;99.90;;;;;;5105779;27;20198;-78
2023/04/17 06:49:19;;;;;;;5.18;1.00;;;21.90;99.90;;;;;;5103865;27;20200;-76
2023/04/17 06:51:50;;;;;;;3.22;0.90;;;21.90;99.90;;;;;;5097747;27;20254;-76
2023/04/17 06:54:21;;;;;;;2.50;0.68;;;21.90;99.90;;;;;;5098876;27;20206;-76
2023/04/17 06:56:54;;;;;;;3.95;0.70;;;21.90;99.90;;;;;;5100112;27;20195;-77
2023/04/17 06:59:27;;;;;;;2.08;0.60;;;21.90;99.90;;;;;;5099948;27;20568;-77
2023/04/17 07:01:58;;;;;;;4.82;0.98;;;21.80;99.90;;;;;;5097563;27;20731;-76
2023/04/17 07:04:29;;;;;;;2.53;0.73;;;21.70;99.90;;;;;;5099782;27;20194;-78
2023/04/17 07:07:00;;;;;;;6.07;0.90;;;21.70;99.90;;;;;;5102346;27;20209;-77
2023/04/17 07:09:32;;;;;;;4.80;1.00;;;21.70;99.90;;;;;;5101036;27;20201;-77
2023/04/17 07:12:03;;;;;;;4.72;0.90;;;21.70;99.90;;;;;;5099086;27;20194;-77
2023/04/17 07:14:37;;;;;;;2.78;0.73;;;21.60;99.90;;;;;;5099232;27;20272;-78
2023/04/17 07:17:08;;;;;;;1.80;0.65;;;21.50;99.90;;;;;;5099793;27;20229;-78
2023/04/17 07:19:39;;;;;;;4.78;1.00;;;21.50;99.90;;;;;;5100622;27;20201;-78
2023/04/17 07:22:10;;;;;;;2.30;0.80;;;21.40;99.90;;;;;;5098127;27;20214;-77
2023/04/17 07:24:41;;;;;;;5.22;1.10;;;21.40;99.90;;;;;;5097892;27;20325;-76
2023/04/17 07:27:12;;;;;;;2.30;0.80;;;21.30;99.90;;;;;;5101951;27;20190;-78
2023/04/17 07:29:51;;;;;;;2.28;0.70;;;21.30;99.90;;;;;;5100327;27;21054;-76
2023/04/17 07:32:23;;;;;;;2.80;0.80;;;21.20;99.90;;;;;;5108894;27;20705;-77
2023/04/17 07:34:54;;;;;;;2.85;0.80;;;21.10;99.90;;;;;;5111365;27;20208;-77
2023/04/17 07:37:25;;;;;;;3.80;0.90;;;21.10;99.90;;;;;;5111732;27;20194;-76
2023/04/17 07:39:56;;;;;;;5.05;1.00;;;21.00;99.90;;;;;;5114220;27;20198;-76
2023/04/17 07:42:28;;;;;;;3.40;0.90;;;21.00;99.90;;;;;;5113807;27;20198;-76
2023/04/17 07:45:01;;;;;;;3.80;1.02;;;20.90;99.90;;;;;;5101833;27;20198;-77
2023/04/17 07:47:32;;;;;;;4.93;1.00;;;20.90;99.90;;;;;;5098102;27;20209;-76
2023/04/17 07:50:03;;;;;;;3.28;0.95;;;20.80;99.90;;;;;;5099079;27;20221;-76
2023/04/17 07:52:34;;;;;;;3.30;0.80;;;20.80;99.90;;;;;;5103439;27;20683;-75
2023/04/17 07:55:06;;;;;;;4.55;1.10;;;20.80;99.90;;;;;;5109267;27;20189;-76
2023/04/17 07:57:41;;;;;;;4.95;2.10;;;20.80;99.90;;;;;;5098927;27;20247;-76
2023/04/17 08:00:15;;;;;;;5.18;2.42;;;20.70;99.90;;;;;;5098676;27;20239;-76
2023/04/17 08:02:46;;;;;;;5.35;1.52;;;20.60;99.90;;;;;;5097595;27;20636;-76
2023/04/17 08:05:17;;;;;;;4.65;1.98;;;20.60;99.90;;;;;;5097949;27;20195;-75
2023/04/17 08:07:48;;;;;;;2.35;1.13;;;20.60;99.90;;;;;;5097010;27;20285;-76
2023/04/17 08:10:19;;;;;;;2.58;1.00;;;20.60;99.90;;;;;;5098428;28;20222;-76
2023/04/17 08:12:51;;;;;;;2.25;0.90;;;20.60;99.90;;;;;;5095673;28;20199;-77
2023/04/17 08:15:24;;;;;;;2.90;1.05;;;20.60;99.90;;;;;;5096708;28;21762;-75
2023/04/17 08:17:56;;;;;;;2.88;1.00;;;20.60;99.90;;;;;;5099474;28;20206;-76
2023/04/17 08:20:27;;;;;;;3.55;1.00;;;20.60;99.90;;;;;;5097557;28;20205;-76
2023/04/17 08:22:59;;;;;;;7.00;1.00;;;20.60;99.90;;;;;;5099194;28;20198;-75
2023/04/17 08:25:30;;;;;;;2.58;0.70;;;20.60;99.90;;;;;;5097475;27;20241;-75
2023/04/17 08:28:01;;;;;;;4.07;1.20;;;20.60;99.90;;;;;;5095593;27;20195;-76
2023/04/17 08:30:35;;;;;;;4.10;0.95;;;20.50;99.90;;;;;;5097520;28;20707;-74
2023/04/17 08:33:06;;;;;;;4.25;0.88;;;20.50;99.90;;;;;;5097595;27;20221;-75
2023/04/17 08:35:37;;;;;;;2.30;1.08;;;20.50;99.90;;;;;;5097506;28;20199;-75
2023/04/17 08:38:09;;;;;;;3.40;1.10;;;20.50;99.90;;;;;;5096014;27;20202;-76
2023/04/17 08:40:41;;;;;;;3.63;1.05;;;20.40;99.90;;;;;;5097610;28;20205;-76
2023/04/17 08:43:18;;;;;;;2.65;0.95;;;20.40;99.90;;;;;;5100397;27;20288;-75
2023/04/17 08:45:54;;;;;;;5.40;1.52;;;20.40;99.90;;;;;;5104215;28;20198;-75
2023/04/17 08:48:25;;;;;;;4.00;1.10;;;20.40;99.90;;;;;;5098631;28;20193;-75
2023/04/17 08:50:57;;;;;;;2.13;1.10;;;20.40;99.90;;;;;;5099635;28;20724;-74
2023/04/17 08:53:28;;;;;;;4.43;1.40;;;20.40;99.90;;;;;;5097806;28;20199;-74
2023/04/17 08:56:04;;;;;;;4.18;1.38;;;20.30;99.90;;;;;;5098513;28;20210;-75
2023/04/17 08:58:36;;;;;;;3.03;1.20;;;20.30;99.90;;;;;;5098954;28;20561;-75
2023/04/17 09:01:19;;;;;;;6.15;1.45;;;20.30;99.90;;;;;;5098378;27;20198;-75
2023/04/17 09:03:52;;;;;;;5.43;1.45;;;20.30;99.90;;;;;;5098132;27;20202;-75
2023/04/17 09:06:23;;;;;;;3.78;1.20;;;20.20;99.90;;;;;;5098387;28;20285;-73
2023/04/17 09:09:02;;;;;;;2.90;1.30;;;20.30;99.90;;;;;;5100260;27;20194;-76
2023/04/17 09:11:33;;;;;;;5.30;1.27;;;20.20;99.90;;;;;;5102461;27;20809;-75
2023/04/17 09:14:05;;;;;;;2.55;1.08;;;20.20;99.90;;;;;;5100905;27;20209;-75
2023/04/17 09:16:54;;;;;;;3.92;1.40;;;20.20;99.90;;;;;;5102454;27;20217;-76
2023/04/17 09:19:25;;;;;;;3.88;1.30;;;20.20;99.90;;;;;;5099535;27;20205;-75
2023/04/17 09:21:57;;;;;;;6.15;1.73;;;20.20;99.90;;;;;;5102831;27;20209;-75
2023/04/17 09:24:37;;;;;;;4.90;1.67;;;20.20;99.90;;;;;;5100602;27;20226;-75
2023/04/17 09:27:23;;;;;;;3.25;1.45;;;20.20;99.90;;;;;;5101324;27;20763;-75
2023/04/17 09:30:04;;;;;;;4.35;1.30;;;20.20;99.90;;;;;;5100781;27;20218;-76
2023/04/17 09:32:38;;;;;;;4.78;1.23;;;20.20;99.90;;;;;;5101242;27;20229;-75
2023/04/17 09:35:10;;;;;;;3.20;1.08;;;20.20;99.90;;;;;;5099494;27;20228;-76
2023/04/17 09:37:54;;;;;;;5.57;1.30;;;20.20;99.90;;;;;;5102980;27;20206;-76
2023/04/17 09:40:28;;;;;;;3.90;1.30;;;20.20;99.90;;;;;;5099435;27;20203;-75
2023/04/17 09:43:01;;;;;;;4.13;1.23;;;20.20;99.90;;;;;;5101312;27;20676;-76
2023/04/17 09:45:38;;;;;;;4.65;1.30;;;20.20;99.90;;;;;;5112434;27;20235;-75
2023/04/17 09:48:12;;;;;;;3.75;1.30;;;20.20;99.90;;;;;;5099993;27;20206;-76
2023/04/17 09:50:43;;;;;;;2.17;1.17;;;20.20;99.90;;;;;;5108089;27;20225;-74
2023/04/17 09:53:15;;;;;;;5.60;1.48;;;20.20;99.90;;;;;;5106980;27;20198;-75
2023/04/17 09:55:48;;;;;;;3.97;2.38;;;20.20;99.90;;;;;;5101829;27;20198;-74
2023/04/17 09:58:19;;;;;;;6.18;2.38;;;20.10;99.90;;;;;;5104091;27;20730;-74
2023/04/17 10:00:51;;;;;;;5.05;2.22;;;20.10;99.90;;;;;;5099284;27;20201;-74
2023/04/17 10:03:24;;;;;;;7.07;1.67;;;20.20;99.90;;;;;;5101118;27;20206;-76
2023/04/17 10:05:55;;;;;;;6.57;1.83;;;20.10;99.90;;;;;;5099564;27;20195;-75
2023/04/17 10:08:26;;;;;;;4.25;1.30;;;20.10;99.90;;;;;;5101115;27;20265;-75
2023/04/17 10:11:07;;;;;;;3.45;1.30;;;20.20;99.90;;;;;;5102032;27;20244;-76
2023/04/17 10:13:42;;;;;;;3.63;1.20;;;20.10;99.90;;;;;;5100740;27;20198;-76
2023/04/17 10:16:13;;;;;;;4.47;1.85;;;20.20;99.90;;;;;;5101939;27;20678;-75
2023/04/17 10:18:46;;;;;;;5.00;1.90;;;20.20;99.90;;;;;;5102075;27;20330;-76
2023/04/17 10:21:24;;;;;;;4.35;1.70;;;20.20;99.90;;;;;;5100495;27;20202;-75
2023/04/17 10:23:56;;;;;;;5.43;1.60;;;20.20;99.90;;;;;;5097953;27;20222;-75
2023/04/17 10:26:38;;;;;;;8.00;1.90;;;20.20;99.90;;;;;;5099272;27;20206;-75
2023/04/17 10:29:09;;;;;;;3.78;1.67;;;20.20;99.90;;;;;;5097082;27;20975;-75
2023/04/17 10:32:27;;;;;;;4.72;1.50;;;20.20;99.90;;;;;;5101893;27;20233;-75
2023/04/17 10:35:02;;;;;;;3.00;1.20;;;20.20;99.90;;;;;;5099501;27;20195;-75
2023/04/17 10:38:05;;;;;;;5.15;1.63;;;20.20;99.90;;;;;;5097737;27;20209;-76
2023/04/17 10:40:37;;;;;;;4.03;1.27;;;20.20;99.90;;;;;;5099936;27;20204;-75
2023/04/17 10:43:13;;;;;;;6.93;1.40;;;20.20;99.90;;;;;;5101671;27;20208;-75
2023/04/17 10:45:58;;;;;;;4.18;1.30;;;20.20;99.90;;;;;;5110059;27;20195;-75
2023/04/17 10:48:37;;;;;;;2.72;1.20;;;20.20;99.90;;;;;;5099923;27;20202;-75
2023/04/17 10:51:42;;;;;;;4.53;1.40;;;20.20;99.90;;;;;;5098801;27;20218;-75
2023/04/17 10:54:16;;;;;;;2.88;1.30;;;20.20;99.90;;;;;;5100892;27;20883;-75
2023/04/17 10:56:48;;;;;;;4.63;1.30;;;20.20;99.90;;;;;;5106115;27;20306;-75
2023/04/17 10:59:20;;;;;;;2.40;1.23;;;20.20;99.90;;;;;;5100542;27;20221;-76
2023/04/17 11:02:03;;;;;;;7.78;1.90;;;20.20;99.90;;;;;;5115600;27;20195;-76
2023/04/17 11:04:34;;;;;;;4.78;1.63;;;20.20;99.90;;;;;;5112202;27;20289;-76
2023/04/17 11:07:06;;;;;;;3.88;1.42;;;20.20;99.90;;;;;;5108839;27;20204;-76
2023/04/17 11:09:39;;;;;;;3.08;1.30;;;20.20;99.90;;;;;;5108811;27;20202;-75
2023/04/17 11:12:10;;;;;;;3.13;1.20;;;20.10;99.90;;;;;;5110664;27;20241;-75
2023/04/17 11:14:43;;;;;;;4.35;1.23;;;20.20;99.90;;;;;;5107263;27;20194;-76
2023/04/17 11:17:14;;;;;;;3.28;1.13;;;20.20;99.90;;;;;;5106937;27;20221;-76
2023/04/17 11:19:46;;;;;;;4.63;1.30;;;20.10;99.90;;;;;;5110162;27;20190;-75
2023/04/17 11:22:20;;;;;;;5.10;1.15;;;20.20;99.90;;;;;;5110381;27;20320;-76
2023/04/17 11:24:56;;;;;;;4.18;1.05;;;20.20;99.90;;;;;;5105838;27;20226;-75
2023/04/17 11:27:27;;;;;;;5.75;1.52;;;20.20;99.90;;;;;;5101605;27;20205;-75
2023/04/17 11:29:58;;;;;;;3.28;1.08;;;20.20;99.90;;;;;;5100993;27;20194;-76
2023/04/17 11:32:37;;;;;;;3.90;1.17;;;20.10;99.90;;;;;;5106599;27;20231;-75
2023/04/17 11:35:08;;;;;;;3.22;0.90;;;20.20;99.90;;;;;;5102006;27;20199;-75
2023/04/17 11:38:01;;;;;;;6.22;1.00;;;20.20;99.90;;;;;;5103559;27;20194;-75
2023/04/17 11:40:35;;;;;;;3.60;1.17;;;20.10;99.90;;;;;;5100458;27;20202;-75
2023/04/17 11:43:13;;;;;;;2.75;0.80;;;20.20;99.90;;;;;;5100680;27;20971;-75
2023/04/17 11:45:46;;;;;;;2.28;0.95;;;20.20;99.90;;;;;;5104298;27;20208;-75
2023/04/17 11:48:18;;;;;;;3.35;0.90;;;20.10;99.90;;;;;;5093756;27;20209;-75
2023/04/17 11:50:49;;;;;;;2.60;0.93;;;20.20;99.90;;;;;;5103002;27;20265;-74
2023/04/17 11:53:21;;;;;;;4.53;1.10;;;20.20;99.90;;;;;;5101057;27;20214;-75
2023/04/17 11:56:15;;;;;;;3.60;1.10;;;20.10;99.90;;;;;;5102119;27;20202;-77
2023/04/17 11:58:50;;;;;;;2.38;0.80;;;20.10;99.90;;;;;;5106514;27;20190;-75
2023/04/17 12:01:23;;;;;;;6.50;1.20;;;20.10;99.90;;;;;;5107241;28;20201;-75
2023/04/17 12:03:58;;;;;;;2.63;1.33;;;20.10;99.90;;;;;;5096453;27;20198;-76
2023/04/17 12:06:39;;;;;;;4.20;1.15;;;20.10;99.90;;;;;;5103238;27;20202;-77
2023/04/17 12:09:23;;;;;;;3.58;1.02;;;20.00;99.90;;;;;;5094952;27;20197;-76
2023/04/17 12:11:57;;;;;;;6.53;1.63;;;20.00;99.90;;;;;;5096819;28;20724;-77
2023/04/17 12:14:28;;;;;;;4.55;1.15;;;20.00;99.90;;;;;;5097828;28;20194;-75
2023/04/17 12:17:00;;;;;;;4.63;1.17;;;20.00;99.90;;;;;;5094826;27;20201;-75
2023/04/17 12:19:32;;;;;;;3.47;1.20;;;19.90;99.90;;;;;;5107214;28;20282;-75
2023/04/17 12:22:04;;;;;;;4.43;1.60;;;19.90;99.90;;;;;;5101134;27;20202;-74
2023/04/17 12:24:35;;;;;;;4.60;1.20;;;19.90;99.90;;;;;;5101495;27;20230;-75
2023/04/17 12:27:08;;;;;;;2.65;1.45;;;19.80;99.90;;;;;;5102690;27;20198;-76
2023/04/17 12:29:39;;;;;;;4.40;1.50;;;19.80;99.90;;;;;;5093665;27;20198;-75
2023/04/17 12:32:11;;;;;;;3.42;1.38;;;19.80;99.90;;;;;;5098457;28;20230;-77
2023/04/17 12:34:43;;;;;;;2.53;1.33;;;19.80;99.90;;;;;;5093764;28;20736;-74
2023/04/17 12:37:14;;;;;;;4.30;1.70;;;19.80;99.90;;;;;;5097128;27;20222;-77
2023/04/17 12:39:46;;;;;;;3.80;1.48;;;19.70;99.90;;;;;;5102919;27;20286;-76
2023/04/17 12:42:20;;;;;;;6.53;1.65;;;19.60;99.90;;;;;;5099575;27;20501;-76
2023/04/17 12:44:51;;;;;;;4.47;1.52;;;19.60;99.90;;;;;;5098984;27;20208;-76
2023/04/17 12:47:22;;;;;;;6.57;1.70;;;19.60;99.90;;;;;;5106368;27;20202;-76
2023/04/17 12:49:55;;;;;;;7.47;1.80;;;19.50;99.90;;;;;;5100210;27;20209;-80
2023/04/17 12:52:28;;;;;;;7.05;1.58;;;19.50;99.90;;;;;;5102991;27;20871;-76
2023/04/17 12:55:00;;;;;;;4.00;1.65;;;19.50;99.90;;;;;;5096199;27;20401;-76
2023/04/17 12:57:33;;;;;;;8.45;1.85;;;19.40;99.90;;;;;;5106156;27;23007;-76
2023/04/17 13:00:07;;;;;;;7.25;1.80;;;19.50;99.90;;;;;;5105734;27;20213;-75
2023/04/17 13:02:38;;;;;;;4.03;1.60;;;19.40;99.90;;;;;;5105055;27;20286;-74
2023/04/17 13:05:11;;;;;;;4.40;1.70;;;19.40;99.90;;;;;;5107847;27;20539;-75
2023/04/17 13:07:42;;;;;;;3.03;1.30;;;19.40;99.90;;;;;;5100849;27;20197;-75
2023/04/17 13:10:14;;;;;;;5.35;1.73;;;19.30;99.90;;;;;;5105894;27;22883;-75
2023/04/17 13:12:50;;;;;;;3.03;1.60;;;19.30;99.90;;;;;;5108083;27;20230;-76
2023/04/17 13:15:21;;;;;;;3.72;1.40;;;19.30;99.90;;;;;;5099232;27;20194;-73
2023/04/17 13:17:52;;;;;;;3.53;1.30;;;19.20;99.90;;;;;;5095383;27;20226;-75